sensor_id;sensor_type;location;lat;lon;timestamp;P1;durP1;ratioP1;P2;durP2;ratioP2
54517;SDS011;40423;53.176;6.002;2022-08-19T00:00:15;10.45;;;9.25;;
54517;SDS011;40423;53.176;6.002;2022-08-19T00:02:42;16.23;;;8.95;;
54517;SDS011;40423;53.176;6.002;2022-08-19T00:05:09;13.52;;;9.70;;
54517;SDS011;40423;53.176;6.002;2022-08-19T00:07:36;9.95;;;8.27;;
54517;SDS011;40423;53.176;6.002;2022-08-19T00:10:03;12.82;;;9.13;;
54517;SDS011;40423;53.176;6.002;2022-08-19T00:12:30;14.52;;;10.05;;
54517;SDS011;40423;53.176;6.002;2022-08-19T00:14:56;11.35;;;9.73;;
54517;SDS011;40423;53.176;6.002;2022-08-19T00:17:22;12.50;;;9.57;;
54517;SDS011;40423;53.176;6.002;2022-08-19T00:19:48;12.32;;;9.90;;
54517;SDS011;40423;53.176;6.002;2022-08-19T00:22:14;10.73;;;9.55;;
54517;SDS011;40423;53.176;6.002;2022-08-19T00:24:41;9.07;;;7.13;;
54517;SDS011;40423;53.176;6.002;2022-08-19T00:27:08;15.00;;;8.35;;
54517;SDS011;40423;53.176;6.002;2022-08-19T00:29:34;15.00;;;9.98;;
54517;SDS011;40423;53.176;6.002;2022-08-19T00:31:59;11.20;;;9.02;;
54517;SDS011;40423;53.176;6.002;2022-08-19T00:34:25;12.10;;;9.38;;
54517;SDS011;40423;53.176;6.002;2022-08-19T00:36:55;10.77;;;9.10;;
54517;SDS011;40423;53.176;6.002;2022-08-19T00:39:22;11.40;;;9.95;;
54517;SDS011;40423;53.176;6.002;2022-08-19T00:41:48;11.18;;;8.95;;
54517;SDS011;40423;53.176;6.002;2022-08-19T00:44:20;9.50;;;7.75;;
54517;SDS011;40423;53.176;6.002;2022-08-19T00:46:48;12.65;;;9.88;;
54517;SDS011;40423;53.176;6.002;2022-08-19T00:49:16;11.10;;;8.95;;
54517;SDS011;40423;53.176;6.002;2022-08-19T00:51:48;11.02;;;9.48;;
54517;SDS011;40423;53.176;6.002;2022-08-19T00:54:18;11.95;;;9.95;;
54517;SDS011;40423;53.176;6.002;2022-08-19T00:56:44;11.45;;;10.00;;
54517;SDS011;40423;53.176;6.002;2022-08-19T00:59:11;13.32;;;10.43;;
54517;SDS011;40423;53.176;6.002;2022-08-19T01:01:38;12.20;;;10.23;;
54517;SDS011;40423;53.176;6.002;2022-08-19T01:04:05;10.80;;;9.00;;
54517;SDS011;40423;53.176;6.002;2022-08-19T01:06:31;11.43;;;8.48;;
54517;SDS011;40423;53.176;6.002;2022-08-19T01:08:58;11.55;;;9.70;;
54517;SDS011;40423;53.176;6.002;2022-08-19T01:11:26;12.18;;;9.55;;
54517;SDS011;40423;53.176;6.002;2022-08-19T01:13:53;15.13;;;11.10;;
54517;SDS011;40423;53.176;6.002;2022-08-19T01:16:20;8.90;;;7.43;;
54517;SDS011;40423;53.176;6.002;2022-08-19T01:18:49;10.48;;;8.15;;
54517;SDS011;40423;53.176;6.002;2022-08-19T01:21:23;12.13;;;8.75;;
54517;SDS011;40423;53.176;6.002;2022-08-19T01:23:57;10.82;;;8.27;;
54517;SDS011;40423;53.176;6.002;2022-08-19T01:26:23;10.80;;;9.60;;
54517;SDS011;40423;53.176;6.002;2022-08-19T01:28:53;11.55;;;10.25;;
54517;SDS011;40423;53.176;6.002;2022-08-19T01:31:22;11.82;;;9.38;;
54517;SDS011;40423;53.176;6.002;2022-08-19T01:33:51;11.48;;;8.77;;
54517;SDS011;40423;53.176;6.002;2022-08-19T01:36:23;10.05;;;8.80;;
54517;SDS011;40423;53.176;6.002;2022-08-19T01:38:52;10.15;;;7.78;;
54517;SDS011;40423;53.176;6.002;2022-08-19T01:41:18;12.02;;;9.32;;
54517;SDS011;40423;53.176;6.002;2022-08-19T01:43:44;11.88;;;9.55;;
54517;SDS011;40423;53.176;6.002;2022-08-19T01:46:11;11.80;;;8.57;;
54517;SDS011;40423;53.176;6.002;2022-08-19T01:48:38;13.30;;;9.85;;
54517;SDS011;40423;53.176;6.002;2022-08-19T01:51:06;11.07;;;9.60;;
54517;SDS011;40423;53.176;6.002;2022-08-19T01:53:33;13.18;;;9.70;;
54517;SDS011;40423;53.176;6.002;2022-08-19T01:56:00;11.27;;;9.75;;
54517;SDS011;40423;53.176;6.002;2022-08-19T01:58:28;13.68;;;9.93;;
54517;SDS011;40423;53.176;6.002;2022-08-19T02:00:57;10.30;;;8.52;;
54517;SDS011;40423;53.176;6.002;2022-08-19T02:03:23;10.90;;;9.75;;
54517;SDS011;40423;53.176;6.002;2022-08-19T02:05:53;13.48;;;9.50;;
54517;SDS011;40423;53.176;6.002;2022-08-19T02:08:25;11.90;;;9.75;;
54517;SDS011;40423;53.176;6.002;2022-08-19T02:10:51;14.35;;;10.32;;
54517;SDS011;40423;53.176;6.002;2022-08-19T02:13:18;10.95;;;9.85;;
54517;SDS011;40423;53.176;6.002;2022-08-19T02:15:44;11.48;;;9.55;;
54517;SDS011;40423;53.176;6.002;2022-08-19T02:18:10;12.43;;;9.73;;
54517;SDS011;40423;53.176;6.002;2022-08-19T02:20:36;15.00;;;9.98;;
54517;SDS011;40423;53.176;6.002;2022-08-19T02:23:03;11.90;;;9.90;;
54517;SDS011;40423;53.176;6.002;2022-08-19T02:25:30;13.32;;;10.32;;
54517;SDS011;40423;53.176;6.002;2022-08-19T02:27:56;13.05;;;10.52;;
54517;SDS011;40423;53.176;6.002;2022-08-19T02:30:22;11.90;;;8.50;;
54517;SDS011;40423;53.176;6.002;2022-08-19T02:32:49;11.13;;;7.35;;
54517;SDS011;40423;53.176;6.002;2022-08-19T02:35:16;8.48;;;7.30;;
54517;SDS011;40423;53.176;6.002;2022-08-19T02:37:42;12.50;;;7.95;;
54517;SDS011;40423;53.176;6.002;2022-08-19T02:40:28;8.48;;;6.85;;
54517;SDS011;40423;53.176;6.002;2022-08-19T02:43:01;11.05;;;8.30;;
54517;SDS011;40423;53.176;6.002;2022-08-19T02:45:31;8.18;;;6.90;;
54517;SDS011;40423;53.176;6.002;2022-08-19T02:48:00;12.65;;;7.65;;
54517;SDS011;40423;53.176;6.002;2022-08-19T02:50:27;9.02;;;7.78;;
54517;SDS011;40423;53.176;6.002;2022-08-19T02:52:52;10.73;;;8.05;;
54517;SDS011;40423;53.176;6.002;2022-08-19T02:55:18;13.80;;;9.55;;
54517;SDS011;40423;53.176;6.002;2022-08-19T02:57:45;13.90;;;10.30;;
54517;SDS011;40423;53.176;6.002;2022-08-19T03:00:12;12.77;;;9.35;;
54517;SDS011;40423;53.176;6.002;2022-08-19T03:02:38;11.77;;;9.45;;
54517;SDS011;40423;53.176;6.002;2022-08-19T03:05:05;11.48;;;9.40;;
54517;SDS011;40423;53.176;6.002;2022-08-19T03:07:32;10.95;;;8.63;;
54517;SDS011;40423;53.176;6.002;2022-08-19T03:09:57;11.65;;;9.23;;
54517;SDS011;40423;53.176;6.002;2022-08-19T03:12:23;11.60;;;8.90;;
54517;SDS011;40423;53.176;6.002;2022-08-19T03:14:49;11.45;;;10.07;;
54517;SDS011;40423;53.176;6.002;2022-08-19T03:17:15;17.58;;;11.10;;
54517;SDS011;40423;53.176;6.002;2022-08-19T03:19:41;13.63;;;10.50;;
54517;SDS011;40423;53.176;6.002;2022-08-19T03:22:08;12.00;;;9.48;;
54517;SDS011;40423;53.176;6.002;2022-08-19T03:24:34;12.32;;;10.07;;
54517;SDS011;40423;53.176;6.002;2022-08-19T03:26:59;11.07;;;8.85;;
54517;SDS011;40423;53.176;6.002;2022-08-19T03:29:26;12.45;;;8.77;;
54517;SDS011;40423;53.176;6.002;2022-08-19T03:31:53;10.70;;;9.27;;
54517;SDS011;40423;53.176;6.002;2022-08-19T03:34:23;12.20;;;8.82;;
54517;SDS011;40423;53.176;6.002;2022-08-19T03:36:54;11.27;;;8.30;;
54517;SDS011;40423;53.176;6.002;2022-08-19T03:39:21;13.63;;;9.20;;
54517;SDS011;40423;53.176;6.002;2022-08-19T03:41:49;15.48;;;10.80;;
54517;SDS011;40423;53.176;6.002;2022-08-19T03:44:17;10.38;;;9.30;;
54517;SDS011;40423;53.176;6.002;2022-08-19T03:46:52;9.35;;;7.43;;
54517;SDS011;40423;53.176;6.002;2022-08-19T03:49:20;13.15;;;9.60;;
54517;SDS011;40423;53.176;6.002;2022-08-19T03:51:48;10.80;;;9.70;;
54517;SDS011;40423;53.176;6.002;2022-08-19T03:54:16;10.60;;;7.95;;
54517;SDS011;40423;53.176;6.002;2022-08-19T03:56:44;12.93;;;10.18;;
54517;SDS011;40423;53.176;6.002;2022-08-19T03:59:13;13.13;;;8.90;;
54517;SDS011;40423;53.176;6.002;2022-08-19T04:01:51;12.10;;;9.70;;
54517;SDS011;40423;53.176;6.002;2022-08-19T04:04:18;12.77;;;9.27;;
54517;SDS011;40423;53.176;6.002;2022-08-19T04:06:44;11.85;;;9.82;;
54517;SDS011;40423;53.176;6.002;2022-08-19T04:09:12;15.32;;;12.15;;
54517;SDS011;40423;53.176;6.002;2022-08-19T04:11:43;18.33;;;11.23;;
54517;SDS011;40423;53.176;6.002;2022-08-19T04:14:12;12.33;;;10.00;;
54517;SDS011;40423;53.176;6.002;2022-08-19T04:16:40;15.07;;;11.68;;
54517;SDS011;40423;53.176;6.002;2022-08-19T04:19:07;11.88;;;9.10;;
54517;SDS011;40423;53.176;6.002;2022-08-19T04:21:33;19.00;;;11.70;;
54517;SDS011;40423;53.176;6.002;2022-08-19T04:23:59;17.15;;;12.18;;
54517;SDS011;40423;53.176;6.002;2022-08-19T04:26:29;14.05;;;11.23;;
54517;SDS011;40423;53.176;6.002;2022-08-19T04:28:57;15.65;;;11.18;;
54517;SDS011;40423;53.176;6.002;2022-08-19T04:31:25;15.15;;;12.35;;
54517;SDS011;40423;53.176;6.002;2022-08-19T04:33:53;15.15;;;11.93;;
54517;SDS011;40423;53.176;6.002;2022-08-19T04:36:25;13.48;;;11.07;;
54517;SDS011;40423;53.176;6.002;2022-08-19T04:38:54;15.68;;;12.02;;
54517;SDS011;40423;53.176;6.002;2022-08-19T04:41:27;17.63;;;13.27;;
54517;SDS011;40423;53.176;6.002;2022-08-19T04:44:12;13.98;;;10.90;;
54517;SDS011;40423;53.176;6.002;2022-08-19T04:46:39;14.65;;;11.48;;
54517;SDS011;40423;53.176;6.002;2022-08-19T04:49:05;16.88;;;13.10;;
54517;SDS011;40423;53.176;6.002;2022-08-19T04:51:32;18.75;;;13.05;;
54517;SDS011;40423;53.176;6.002;2022-08-19T04:53:59;19.00;;;12.60;;
54517;SDS011;40423;53.176;6.002;2022-08-19T04:56:27;17.52;;;12.35;;
54517;SDS011;40423;53.176;6.002;2022-08-19T04:58:53;17.58;;;12.43;;
54517;SDS011;40423;53.176;6.002;2022-08-19T05:01:21;17.15;;;13.55;;
54517;SDS011;40423;53.176;6.002;2022-08-19T05:03:54;16.17;;;13.13;;
54517;SDS011;40423;53.176;6.002;2022-08-19T05:06:21;16.17;;;11.85;;
54517;SDS011;40423;53.176;6.002;2022-08-19T05:08:48;16.50;;;12.55;;
54517;SDS011;40423;53.176;6.002;2022-08-19T05:11:16;15.18;;;11.45;;
54517;SDS011;40423;53.176;6.002;2022-08-19T05:13:45;19.02;;;14.57;;
54517;SDS011;40423;53.176;6.002;2022-08-19T05:16:12;16.60;;;12.73;;
54517;SDS011;40423;53.176;6.002;2022-08-19T05:18:39;15.98;;;13.07;;
54517;SDS011;40423;53.176;6.002;2022-08-19T05:21:24;19.85;;;13.02;;
54517;SDS011;40423;53.176;6.002;2022-08-19T05:24:09;19.23;;;14.45;;
54517;SDS011;40423;53.176;6.002;2022-08-19T05:26:36;18.60;;;13.57;;
54517;SDS011;40423;53.176;6.002;2022-08-19T05:29:07;16.80;;;13.57;;
54517;SDS011;40423;53.176;6.002;2022-08-19T05:31:34;19.33;;;13.68;;
54517;SDS011;40423;53.176;6.002;2022-08-19T05:34:01;16.23;;;12.10;;
54517;SDS011;40423;53.176;6.002;2022-08-19T05:36:28;18.70;;;13.57;;
54517;SDS011;40423;53.176;6.002;2022-08-19T05:38:59;16.90;;;13.90;;
54517;SDS011;40423;53.176;6.002;2022-08-19T05:41:26;20.30;;;14.80;;
54517;SDS011;40423;53.176;6.002;2022-08-19T05:44:00;16.67;;;13.80;;
54517;SDS011;40423;53.176;6.002;2022-08-19T05:46:28;16.95;;;13.38;;
54517;SDS011;40423;53.176;6.002;2022-08-19T05:48:54;20.83;;;15.38;;
54517;SDS011;40423;53.176;6.002;2022-08-19T05:51:21;19.58;;;15.23;;
54517;SDS011;40423;53.176;6.002;2022-08-19T05:53:48;21.17;;;15.75;;
54517;SDS011;40423;53.176;6.002;2022-08-19T05:56:14;20.00;;;15.25;;
54517;SDS011;40423;53.176;6.002;2022-08-19T05:58:41;23.98;;;17.48;;
54517;SDS011;40423;53.176;6.002;2022-08-19T06:01:10;20.40;;;14.75;;
54517;SDS011;40423;53.176;6.002;2022-08-19T06:03:38;19.17;;;14.93;;
54517;SDS011;40423;53.176;6.002;2022-08-19T06:06:05;20.13;;;15.27;;
54517;SDS011;40423;53.176;6.002;2022-08-19T06:08:33;15.45;;;11.88;;
54517;SDS011;40423;53.176;6.002;2022-08-19T06:11:18;21.25;;;16.02;;
54517;SDS011;40423;53.176;6.002;2022-08-19T06:13:51;19.38;;;14.98;;
54517;SDS011;40423;53.176;6.002;2022-08-19T06:16:19;20.52;;;15.52;;
54517;SDS011;40423;53.176;6.002;2022-08-19T06:18:47;21.90;;;15.63;;
54517;SDS011;40423;53.176;6.002;2022-08-19T06:21:16;18.13;;;14.82;;
54517;SDS011;40423;53.176;6.002;2022-08-19T06:26:17;21.38;;;15.50;;
54517;SDS011;40423;53.176;6.002;2022-08-19T06:28:44;22.25;;;15.65;;
54517;SDS011;40423;53.176;6.002;2022-08-19T06:31:14;20.55;;;16.10;;
54517;SDS011;40423;53.176;6.002;2022-08-19T06:33:41;20.90;;;16.52;;
54517;SDS011;40423;53.176;6.002;2022-08-19T06:36:15;21.90;;;17.02;;
54517;SDS011;40423;53.176;6.002;2022-08-19T06:38:44;19.75;;;15.00;;
54517;SDS011;40423;53.176;6.002;2022-08-19T06:41:10;20.67;;;16.50;;
54517;SDS011;40423;53.176;6.002;2022-08-19T06:43:36;18.65;;;15.40;;
54517;SDS011;40423;53.176;6.002;2022-08-19T06:46:02;19.30;;;15.68;;
54517;SDS011;40423;53.176;6.002;2022-08-19T06:48:29;21.17;;;16.85;;
54517;SDS011;40423;53.176;6.002;2022-08-19T06:50:55;18.48;;;15.77;;
54517;SDS011;40423;53.176;6.002;2022-08-19T06:53:21;18.50;;;15.45;;
54517;SDS011;40423;53.176;6.002;2022-08-19T06:55:47;20.48;;;16.48;;
54517;SDS011;40423;53.176;6.002;2022-08-19T06:58:12;20.20;;;17.25;;
54517;SDS011;40423;53.176;6.002;2022-08-19T07:00:39;20.52;;;16.67;;
54517;SDS011;40423;53.176;6.002;2022-08-19T07:03:05;20.23;;;16.33;;
54517;SDS011;40423;53.176;6.002;2022-08-19T07:05:31;19.92;;;16.40;;
54517;SDS011;40423;53.176;6.002;2022-08-19T07:07:56;18.05;;;15.65;;
54517;SDS011;40423;53.176;6.002;2022-08-19T07:10:22;23.58;;;17.58;;
54517;SDS011;40423;53.176;6.002;2022-08-19T07:12:48;20.75;;;16.85;;
54517;SDS011;40423;53.176;6.002;2022-08-19T07:15:15;16.58;;;14.60;;
54517;SDS011;40423;53.176;6.002;2022-08-19T07:17:41;17.80;;;15.90;;
54517;SDS011;40423;53.176;6.002;2022-08-19T07:20:08;20.80;;;17.20;;
54517;SDS011;40423;53.176;6.002;2022-08-19T07:22:39;18.48;;;16.10;;
54517;SDS011;40423;53.176;6.002;2022-08-19T07:25:06;17.52;;;15.68;;
54517;SDS011;40423;53.176;6.002;2022-08-19T07:27:33;20.77;;;17.75;;
54517;SDS011;40423;53.176;6.002;2022-08-19T07:29:59;24.27;;;18.20;;
54517;SDS011;40423;53.176;6.002;2022-08-19T07:32:25;18.63;;;16.30;;
54517;SDS011;40423;53.176;6.002;2022-08-19T07:34:51;19.48;;;17.42;;
54517;SDS011;40423;53.176;6.002;2022-08-19T07:37:17;24.48;;;18.70;;
54517;SDS011;40423;53.176;6.002;2022-08-19T07:39:43;21.65;;;18.15;;
54517;SDS011;40423;53.176;6.002;2022-08-19T07:42:09;19.98;;;17.88;;
54517;SDS011;40423;53.176;6.002;2022-08-19T07:44:36;22.38;;;17.27;;
54517;SDS011;40423;53.176;6.002;2022-08-19T07:47:02;19.75;;;17.63;;
54517;SDS011;40423;53.176;6.002;2022-08-19T07:49:29;20.73;;;18.63;;
54517;SDS011;40423;53.176;6.002;2022-08-19T07:51:59;21.00;;;18.00;;
54517;SDS011;40423;53.176;6.002;2022-08-19T07:54:27;22.83;;;20.23;;
54517;SDS011;40423;53.176;6.002;2022-08-19T07:56:55;23.65;;;19.95;;
54517;SDS011;40423;53.176;6.002;2022-08-19T07:59:22;21.05;;;18.83;;
54517;SDS011;40423;53.176;6.002;2022-08-19T08:01:49;24.77;;;20.45;;
54517;SDS011;40423;53.176;6.002;2022-08-19T08:04:15;26.48;;;19.67;;
54517;SDS011;40423;53.176;6.002;2022-08-19T08:07:00;23.17;;;19.48;;
54517;SDS011;40423;53.176;6.002;2022-08-19T08:09:45;26.60;;;21.00;;
54517;SDS011;40423;53.176;6.002;2022-08-19T08:12:15;23.20;;;20.70;;
54517;SDS011;40423;53.176;6.002;2022-08-19T08:14:54;22.95;;;20.52;;
54517;SDS011;40423;53.176;6.002;2022-08-19T08:17:23;24.90;;;21.88;;
54517;SDS011;40423;53.176;6.002;2022-08-19T08:19:51;24.75;;;21.05;;
54517;SDS011;40423;53.176;6.002;2022-08-19T08:22:18;25.33;;;21.90;;
54517;SDS011;40423;53.176;6.002;2022-08-19T08:25:05;24.73;;;21.95;;
54517;SDS011;40423;53.176;6.002;2022-08-19T08:27:37;25.35;;;22.52;;
54517;SDS011;40423;53.176;6.002;2022-08-19T08:30:11;27.83;;;23.33;;
54517;SDS011;40423;53.176;6.002;2022-08-19T08:32:41;27.40;;;23.42;;
54517;SDS011;40423;53.176;6.002;2022-08-19T08:35:11;25.08;;;22.40;;
54517;SDS011;40423;53.176;6.002;2022-08-19T08:37:39;26.83;;;23.95;;
54517;SDS011;40423;53.176;6.002;2022-08-19T08:40:05;25.77;;;23.13;;
54517;SDS011;40423;53.176;6.002;2022-08-19T08:42:47;24.30;;;21.67;;
54517;SDS011;40423;53.176;6.002;2022-08-19T08:45:25;24.80;;;22.15;;
54517;SDS011;40423;53.176;6.002;2022-08-19T08:47:52;23.25;;;20.85;;
54517;SDS011;40423;53.176;6.002;2022-08-19T08:50:22;25.33;;;20.92;;
54517;SDS011;40423;53.176;6.002;2022-08-19T08:52:55;22.98;;;20.67;;
54517;SDS011;40423;53.176;6.002;2022-08-19T08:55:23;24.05;;;20.42;;
54517;SDS011;40423;53.176;6.002;2022-08-19T08:58:29;22.63;;;20.30;;
54517;SDS011;40423;53.176;6.002;2022-08-19T09:00:49;23.88;;;20.85;;
54517;SDS011;40423;53.176;6.002;2022-08-19T09:08:54;26.17;;;21.88;;
54517;SDS011;40423;53.176;6.002;2022-08-19T09:17:12;24.45;;;21.85;;
54517;SDS011;40423;53.176;6.002;2022-08-19T09:19:49;23.13;;;20.73;;
54517;SDS011;40423;53.176;6.002;2022-08-19T09:22:15;25.23;;;22.52;;
54517;SDS011;40423;53.176;6.002;2022-08-19T09:24:40;24.10;;;21.30;;
54517;SDS011;40423;53.176;6.002;2022-08-19T09:27:06;22.92;;;20.52;;
54517;SDS011;40423;53.176;6.002;2022-08-19T09:29:32;23.98;;;21.48;;
54517;SDS011;40423;53.176;6.002;2022-08-19T09:31:58;21.95;;;19.60;;
54517;SDS011;40423;53.176;6.002;2022-08-19T09:34:24;21.73;;;19.42;;
54517;SDS011;40423;53.176;6.002;2022-08-19T09:36:49;24.10;;;20.25;;
54517;SDS011;40423;53.176;6.002;2022-08-19T09:39:18;23.10;;;20.63;;
54517;SDS011;40423;53.176;6.002;2022-08-19T09:41:43;19.10;;;17.15;;
54517;SDS011;40423;53.176;6.002;2022-08-19T09:44:09;22.98;;;20.58;;
54517;SDS011;40423;53.176;6.002;2022-08-19T09:46:38;24.50;;;19.10;;
54517;SDS011;40423;53.176;6.002;2022-08-19T09:49:03;23.40;;;20.88;;
54517;SDS011;40423;53.176;6.002;2022-08-19T09:51:31;20.60;;;17.75;;
54517;SDS011;40423;53.176;6.002;2022-08-19T09:54:02;24.65;;;19.88;;
54517;SDS011;40423;53.176;6.002;2022-08-19T09:56:28;23.55;;;20.17;;
54517;SDS011;40423;53.176;6.002;2022-08-19T09:58:57;22.38;;;19.98;;
54517;SDS011;40423;53.176;6.002;2022-08-19T10:01:25;25.38;;;19.15;;
54517;SDS011;40423;53.176;6.002;2022-08-19T10:03:53;21.17;;;18.00;;
54517;SDS011;40423;53.176;6.002;2022-08-19T10:06:20;18.02;;;15.45;;
54517;SDS011;40423;53.176;6.002;2022-08-19T10:08:48;21.63;;;16.90;;
54517;SDS011;40423;53.176;6.002;2022-08-19T10:11:14;21.65;;;15.93;;
54517;SDS011;40423;53.176;6.002;2022-08-19T10:13:42;24.17;;;16.92;;
54517;SDS011;40423;53.176;6.002;2022-08-19T10:16:10;17.27;;;14.82;;
54517;SDS011;40423;53.176;6.002;2022-08-19T10:18:38;16.73;;;13.55;;
54517;SDS011;40423;53.176;6.002;2022-08-19T10:21:17;17.08;;;13.73;;
54517;SDS011;40423;53.176;6.002;2022-08-19T10:23:48;15.25;;;12.23;;
54517;SDS011;40423;53.176;6.002;2022-08-19T10:26:20;15.35;;;12.75;;
54517;SDS011;40423;53.176;6.002;2022-08-19T10:28:47;16.65;;;12.35;;
54517;SDS011;40423;53.176;6.002;2022-08-19T10:31:15;15.93;;;12.63;;
54517;SDS011;40423;53.176;6.002;2022-08-19T10:33:49;18.10;;;13.23;;
54517;SDS011;40423;53.176;6.002;2022-08-19T10:36:21;17.15;;;12.77;;
54517;SDS011;40423;53.176;6.002;2022-08-19T10:38:50;16.25;;;14.45;;
54517;SDS011;40423;53.176;6.002;2022-08-19T10:41:19;15.30;;;12.27;;
54517;SDS011;40423;53.176;6.002;2022-08-19T10:43:50;13.75;;;10.98;;
54517;SDS011;40423;53.176;6.002;2022-08-19T10:46:20;16.08;;;12.50;;
54517;SDS011;40423;53.176;6.002;2022-08-19T10:48:47;16.35;;;13.55;;
54517;SDS011;40423;53.176;6.002;2022-08-19T10:51:14;17.63;;;12.50;;
54517;SDS011;40423;53.176;6.002;2022-08-19T10:53:59;13.10;;;11.80;;
54517;SDS011;40423;53.176;6.002;2022-08-19T10:56:25;17.67;;;12.82;;
54517;SDS011;40423;53.176;6.002;2022-08-19T10:59:10;16.67;;;12.00;;
54517;SDS011;40423;53.176;6.002;2022-08-19T11:01:38;17.60;;;13.20;;
54517;SDS011;40423;53.176;6.002;2022-08-19T11:04:05;17.88;;;15.25;;
54517;SDS011;40423;53.176;6.002;2022-08-19T11:06:35;16.55;;;14.30;;
54517;SDS011;40423;53.176;6.002;2022-08-19T11:09:02;19.20;;;13.88;;
54517;SDS011;40423;53.176;6.002;2022-08-19T11:11:28;15.60;;;12.55;;
54517;SDS011;40423;53.176;6.002;2022-08-19T11:13:54;18.92;;;12.93;;
54517;SDS011;40423;53.176;6.002;2022-08-19T11:16:21;19.67;;;13.05;;
54517;SDS011;40423;53.176;6.002;2022-08-19T11:18:56;18.90;;;14.95;;
54517;SDS011;40423;53.176;6.002;2022-08-19T11:24:03;20.45;;;13.75;;
54517;SDS011;40423;53.176;6.002;2022-08-19T11:26:34;16.92;;;14.07;;
54517;SDS011;40423;53.176;6.002;2022-08-19T11:29:00;15.57;;;13.13;;
54517;SDS011;40423;53.176;6.002;2022-08-19T11:31:31;19.35;;;13.85;;
54517;SDS011;40423;53.176;6.002;2022-08-19T11:33:59;16.85;;;13.15;;
54517;SDS011;40423;53.176;6.002;2022-08-19T11:36:29;15.23;;;12.95;;
54517;SDS011;40423;53.176;6.002;2022-08-19T11:38:57;17.13;;;12.88;;
54517;SDS011;40423;53.176;6.002;2022-08-19T11:41:24;16.40;;;12.55;;
54517;SDS011;40423;53.176;6.002;2022-08-19T11:43:50;16.27;;;12.57;;
54517;SDS011;40423;53.176;6.002;2022-08-19T11:46:21;16.80;;;13.73;;
54517;SDS011;40423;53.176;6.002;2022-08-19T11:48:48;15.05;;;11.48;;
54517;SDS011;40423;53.176;6.002;2022-08-19T11:51:20;15.70;;;12.73;;
54517;SDS011;40423;53.176;6.002;2022-08-19T11:53:47;17.80;;;13.55;;
54517;SDS011;40423;53.176;6.002;2022-08-19T11:56:15;16.05;;;12.27;;
54517;SDS011;40423;53.176;6.002;2022-08-19T11:58:41;19.48;;;13.45;;
54517;SDS011;40423;53.176;6.002;2022-08-19T12:01:07;16.98;;;12.05;;
54517;SDS011;40423;53.176;6.002;2022-08-19T12:03:34;13.70;;;10.48;;
54517;SDS011;40423;53.176;6.002;2022-08-19T12:06:07;16.25;;;11.50;;
54517;SDS011;40423;53.176;6.002;2022-08-19T12:08:36;15.15;;;11.77;;
54517;SDS011;40423;53.176;6.002;2022-08-19T12:11:03;16.17;;;11.32;;
54517;SDS011;40423;53.176;6.002;2022-08-19T12:13:29;14.55;;;11.70;;
54517;SDS011;40423;53.176;6.002;2022-08-19T12:15:56;16.23;;;12.48;;
54517;SDS011;40423;53.176;6.002;2022-08-19T12:18:22;19.52;;;14.13;;
54517;SDS011;40423;53.176;6.002;2022-08-19T12:20:50;20.17;;;15.20;;
54517;SDS011;40423;53.176;6.002;2022-08-19T12:23:16;20.40;;;15.10;;
54517;SDS011;40423;53.176;6.002;2022-08-19T12:25:43;24.80;;;17.83;;
54517;SDS011;40423;53.176;6.002;2022-08-19T12:28:20;20.95;;;16.15;;
54517;SDS011;40423;53.176;6.002;2022-08-19T12:30:47;24.08;;;17.88;;
54517;SDS011;40423;53.176;6.002;2022-08-19T12:33:16;23.77;;;19.25;;
54517;SDS011;40423;53.176;6.002;2022-08-19T12:35:43;24.38;;;20.63;;
54517;SDS011;40423;53.176;6.002;2022-08-19T12:38:11;24.52;;;20.70;;
54517;SDS011;40423;53.176;6.002;2022-08-19T12:40:38;30.42;;;24.60;;
54517;SDS011;40423;53.176;6.002;2022-08-19T12:43:07;31.63;;;23.48;;
54517;SDS011;40423;53.176;6.002;2022-08-19T12:45:33;29.48;;;22.73;;
54517;SDS011;40423;53.176;6.002;2022-08-19T12:47:59;24.67;;;21.98;;
54517;SDS011;40423;53.176;6.002;2022-08-19T12:50:25;30.45;;;23.02;;
54517;SDS011;40423;53.176;6.002;2022-08-19T12:52:50;27.75;;;24.33;;
54517;SDS011;40423;53.176;6.002;2022-08-19T12:55:16;29.65;;;22.95;;
54517;SDS011;40423;53.176;6.002;2022-08-19T12:57:43;29.38;;;23.85;;
54517;SDS011;40423;53.176;6.002;2022-08-19T13:00:15;29.02;;;22.33;;
54517;SDS011;40423;53.176;6.002;2022-08-19T13:02:46;24.67;;;21.75;;
54517;SDS011;40423;53.176;6.002;2022-08-19T13:05:22;27.73;;;22.52;;
54517;SDS011;40423;53.176;6.002;2022-08-19T13:07:50;30.02;;;20.13;;
54517;SDS011;40423;53.176;6.002;2022-08-19T13:10:20;22.58;;;20.27;;
54517;SDS011;40423;53.176;6.002;2022-08-19T13:12:48;24.95;;;18.67;;
54517;SDS011;40423;53.176;6.002;2022-08-19T13:15:16;26.25;;;20.17;;
54517;SDS011;40423;53.176;6.002;2022-08-19T13:17:45;28.98;;;22.30;;
54517;SDS011;40423;53.176;6.002;2022-08-19T13:20:14;24.70;;;19.60;;
54517;SDS011;40423;53.176;6.002;2022-08-19T13:22:40;25.63;;;20.13;;
54517;SDS011;40423;53.176;6.002;2022-08-19T13:25:07;26.48;;;21.25;;
54517;SDS011;40423;53.176;6.002;2022-08-19T13:27:33;27.30;;;20.30;;
54517;SDS011;40423;53.176;6.002;2022-08-19T13:30:00;28.15;;;21.48;;
54517;SDS011;40423;53.176;6.002;2022-08-19T13:32:46;29.95;;;23.55;;
54517;SDS011;40423;53.176;6.002;2022-08-19T13:35:30;29.33;;;22.35;;
54517;SDS011;40423;53.176;6.002;2022-08-19T13:37:56;29.50;;;23.25;;
54517;SDS011;40423;53.176;6.002;2022-08-19T13:40:23;31.85;;;24.92;;
54517;SDS011;40423;53.176;6.002;2022-08-19T13:42:52;30.10;;;24.05;;
54517;SDS011;40423;53.176;6.002;2022-08-19T13:45:20;24.65;;;21.25;;
54517;SDS011;40423;53.176;6.002;2022-08-19T13:47:52;26.20;;;21.92;;
54517;SDS011;40423;53.176;6.002;2022-08-19T13:50:23;21.45;;;19.08;;
54517;SDS011;40423;53.176;6.002;2022-08-19T13:52:51;22.42;;;18.20;;
54517;SDS011;40423;53.176;6.002;2022-08-19T13:55:17;22.13;;;18.10;;
54517;SDS011;40423;53.176;6.002;2022-08-19T13:57:43;23.90;;;18.50;;
54517;SDS011;40423;53.176;6.002;2022-08-19T14:00:11;21.02;;;18.73;;
54517;SDS011;40423;53.176;6.002;2022-08-19T14:02:39;18.35;;;16.02;;
54517;SDS011;40423;53.176;6.002;2022-08-19T14:05:06;22.90;;;18.52;;
54517;SDS011;40423;53.176;6.002;2022-08-19T14:07:34;20.48;;;18.35;;
54517;SDS011;40423;53.176;6.002;2022-08-19T14:10:01;20.92;;;17.05;;
54517;SDS011;40423;53.176;6.002;2022-08-19T14:12:27;19.52;;;17.23;;
54517;SDS011;40423;53.176;6.002;2022-08-19T14:14:53;19.10;;;14.70;;
54517;SDS011;40423;53.176;6.002;2022-08-19T14:17:19;18.75;;;15.25;;
54517;SDS011;40423;53.176;6.002;2022-08-19T14:19:44;17.95;;;15.13;;
54517;SDS011;40423;53.176;6.002;2022-08-19T14:22:10;16.05;;;11.82;;
54517;SDS011;40423;53.176;6.002;2022-08-19T14:24:39;17.45;;;14.10;;
54517;SDS011;40423;53.176;6.002;2022-08-19T14:27:05;14.52;;;12.90;;
54517;SDS011;40423;53.176;6.002;2022-08-19T14:29:32;14.18;;;12.57;;
54517;SDS011;40423;53.176;6.002;2022-08-19T14:31:59;15.75;;;13.25;;
54517;SDS011;40423;53.176;6.002;2022-08-19T14:34:25;16.42;;;13.75;;
54517;SDS011;40423;53.176;6.002;2022-08-19T14:36:51;15.18;;;12.10;;
54517;SDS011;40423;53.176;6.002;2022-08-19T14:39:17;15.38;;;11.48;;
54517;SDS011;40423;53.176;6.002;2022-08-19T14:41:43;13.80;;;11.57;;
54517;SDS011;40423;53.176;6.002;2022-08-19T14:44:10;15.15;;;13.60;;
54517;SDS011;40423;53.176;6.002;2022-08-19T14:46:38;16.33;;;12.75;;
54517;SDS011;40423;53.176;6.002;2022-08-19T14:49:03;15.25;;;12.32;;